sensor_id;sensor_type;location;lat;lon;timestamp;pressure;altitude;pressure_sealevel;temperature;humidity
58243;BME280;50118;53.232;8.252;2022-09-21T00:00:23;102501.97;;;5.09;100.00
58243;BME280;50118;53.232;8.252;2022-09-21T00:02:49;102496.69;;;5.09;100.00
58243;BME280;50118;53.232;8.252;2022-09-21T00:05:14;102497.66;;;5.07;100.00
58243;BME280;50118;53.232;8.252;2022-09-21T00:07:41;102505.66;;;5.05;100.00
58243;BME280;50118;53.232;8.252;2022-09-21T00:10:07;102501.31;;;5.04;100.00
58243;BME280;50118;53.232;8.252;2022-09-21T00:12:32;102512.78;;;5.03;100.00
58243;BME280;50118;53.232;8.252;2022-09-21T00:14:58;102502.63;;;5.14;100.00
58243;BME280;50118;53.232;8.252;2022-09-21T00:17:23;102505.00;;;5.20;100.00
58243;BME280;50118;53.232;8.252;2022-09-21T00:19:49;102504.00;;;5.23;100.00
58243;BME280;50118;53.232;8.252;2022-09-21T00:22:14;102507.91;;;5.14;100.00
58243;BME280;50118;53.232;8.252;2022-09-21T00:24:39;102502.03;;;5.08;100.00
58243;BME280;50118;53.232;8.252;2022-09-21T00:27:05;102510.94;;;5.05;100.00
58243;BME280;50118;53.232;8.252;2022-09-21T00:29:30;102503.13;;;5.02;100.00
58243;BME280;50118;53.232;8.252;2022-09-21T00:31:56;102506.66;;;5.02;100.00
58243;BME280;50118;53.232;8.252;2022-09-21T00:34:21;102506.13;;;4.94;100.00
58243;BME280;50118;53.232;8.252;2022-09-21T00:36:46;102503.19;;;5.00;100.00
58243;BME280;50118;53.232;8.252;2022-09-21T00:39:12;102509.50;;;4.98;100.00
58243;BME280;50118;53.232;8.252;2022-09-21T00:41:37;102503.97;;;5.04;100.00
58243;BME280;50118;53.232;8.252;2022-09-21T00:46:41;102508.03;;;4.91;100.00
58243;BME280;50118;53.232;8.252;2022-09-21T00:49:07;102506.44;;;4.86;100.00
58243;BME280;50118;53.232;8.252;2022-09-21T00:51:35;102503.84;;;4.85;100.00
58243;BME280;50118;53.232;8.252;2022-09-21T00:54:04;102508.41;;;4.81;100.00
58243;BME280;50118;53.232;8.252;2022-09-21T00:56:33;102508.41;;;4.81;100.00
58243;BME280;50118;53.232;8.252;2022-09-21T00:58:59;102504.91;;;4.81;100.00
58243;BME280;50118;53.232;8.252;2022-09-21T01:01:25;102500.63;;;4.78;100.00
58243;BME280;50118;53.232;8.252;2022-09-21T01:03:51;102512.00;;;4.80;100.00
58243;BME280;50118;53.232;8.252;2022-09-21T01:06:19;102507.63;;;4.79;100.00
58243;BME280;50118;53.232;8.252;2022-09-21T01:08:51;102505.22;;;4.73;100.00
58243;BME280;50118;53.232;8.252;2022-09-21T01:17:47;102502.81;;;4.68;100.00
58243;BME280;50118;53.232;8.252;2022-09-21T01:25:41;102510.97;;;4.62;100.00
58243;BME280;50118;53.232;8.252;2022-09-21T01:31:45;102514.59;;;4.60;100.00
58243;BME280;50118;53.232;8.252;2022-09-21T01:34:23;102516.38;;;4.59;100.00
58243;BME280;50118;53.232;8.252;2022-09-21T01:36:53;102523.56;;;4.56;100.00
58243;BME280;50118;53.232;8.252;2022-09-21T01:39:20;102521.84;;;4.55;100.00
58243;BME280;50118;53.232;8.252;2022-09-21T01:41:49;102513.13;;;4.53;100.00
58243;BME280;50118;53.232;8.252;2022-09-21T01:44:21;102511.28;;;4.55;100.00
58243;BME280;50118;53.232;8.252;2022-09-21T01:46:48;102518.16;;;4.59;100.00
58243;BME280;50118;53.232;8.252;2022-09-21T01:49:18;102521.59;;;4.61;100.00
58243;BME280;50118;53.232;8.252;2022-09-21T01:51:51;102516.44;;;4.58;100.00
58243;BME280;50118;53.232;8.252;2022-09-21T01:54:22;102516.75;;;4.50;100.00
58243;BME280;50118;53.232;8.252;2022-09-21T01:57:24;102515.09;;;4.47;100.00
58243;BME280;50118;53.232;8.252;2022-09-21T01:59:56;102521.47;;;4.42;100.00
58243;BME280;50118;53.232;8.252;2022-09-21T02:02:37;102524.91;;;4.44;100.00
58243;BME280;50118;53.232;8.252;2022-09-21T02:05:05;102526.13;;;4.35;100.00
58243;BME280;50118;53.232;8.252;2022-09-21T02:07:32;102520.97;;;4.32;100.00
58243;BME280;50118;53.232;8.252;2022-09-21T02:09:59;102527.88;;;4.36;100.00
58243;BME280;50118;53.232;8.252;2022-09-21T02:12:25;102522.72;;;4.33;100.00
58243;BME280;50118;53.232;8.252;2022-09-21T02:14:52;102526.25;;;4.32;100.00
58243;BME280;50118;53.232;8.252;2022-09-21T02:20:18;102525.63;;;4.47;100.00
58243;BME280;50118;53.232;8.252;2022-09-21T02:23:03;102529.34;;;4.43;100.00
58243;BME280;50118;53.232;8.252;2022-09-21T02:25:56;102529.22;;;4.46;100.00
58243;BME280;50118;53.232;8.252;2022-09-21T02:29:00;102519.41;;;4.50;100.00
58243;BME280;50118;53.232;8.252;2022-09-21T02:34:20;102523.66;;;4.53;100.00
58243;BME280;50118;53.232;8.252;2022-09-21T02:37:05;102523.56;;;4.56;100.00
58243;BME280;50118;53.232;8.252;2022-09-21T02:42:23;102527.13;;;4.55;100.00
58243;BME280;50118;53.232;8.252;2022-09-21T02:44:57;102527.38;;;4.48;100.00
58243;BME280;50118;53.232;8.252;2022-09-21T02:50:02;102525.53;;;4.51;100.00
58243;BME280;50118;53.232;8.252;2022-09-21T02:52:29;102523.81;;;4.49;100.00
58243;BME280;50118;53.232;8.252;2022-09-21T02:54:56;102522.09;;;4.48;100.00
58243;BME280;50118;53.232;8.252;2022-09-21T02:57:23;102523.94;;;4.46;100.00
58243;BME280;50118;53.232;8.252;2022-09-21T02:59:50;102521.53;;;4.40;100.00
58243;BME280;50118;53.232;8.252;2022-09-21T03:02:16;102519.00;;;4.37;100.00
58243;BME280;50118;53.232;8.252;2022-09-21T03:04:44;102521.59;;;4.39;100.00
58243;BME280;50118;53.232;8.252;2022-09-21T03:07:17;102529.56;;;4.37;100.00
58243;BME280;50118;53.232;8.252;2022-09-21T03:09:42;102526.13;;;4.35;100.00
58243;BME280;50118;53.232;8.252;2022-09-21T03:12:08;102516.59;;;4.33;100.00
58243;BME280;50118;53.232;8.252;2022-09-21T03:14:34;102524.56;;;4.31;100.00
58243;BME280;50118;53.232;8.252;2022-09-21T03:16:59;102527.31;;;4.28;100.00
58243;BME280;50118;53.232;8.252;2022-09-21T03:19:25;102523.88;;;4.26;100.00
58243;BME280;50118;53.232;8.252;2022-09-21T03:21:51;102530.06;;;4.25;100.00
58243;BME280;50118;53.232;8.252;2022-09-21T03:24:16;102531.97;;;4.21;100.00
58243;BME280;50118;53.232;8.252;2022-09-21T03:27:01;102532.03;;;4.20;100.00
58243;BME280;50118;53.232;8.252;2022-09-21T03:29:27;102531.22;;;4.18;100.00
58243;BME280;50118;53.232;8.252;2022-09-21T03:31:52;102534.81;;;4.15;100.00
58243;BME280;50118;53.232;8.252;2022-09-21T03:34:19;102538.50;;;4.11;100.00
58243;BME280;50118;53.232;8.252;2022-09-21T03:36:45;102536.03;;;4.06;100.00
58243;BME280;50118;53.232;8.252;2022-09-21T03:39:11;102541.44;;;4.03;100.00
58243;BME280;50118;53.232;8.252;2022-09-21T03:41:36;102540.59;;;4.03;100.00
58243;BME280;50118;53.232;8.252;2022-09-21T03:44:02;102546.72;;;4.03;100.00
58243;BME280;50118;53.232;8.252;2022-09-21T03:46:27;102546.84;;;4.00;100.00
58243;BME280;50118;53.232;8.252;2022-09-21T03:48:53;102545.28;;;3.95;100.00
58243;BME280;50118;53.232;8.252;2022-09-21T03:51:19;102541.91;;;3.91;100.00
58243;BME280;50118;53.232;8.252;2022-09-21T03:53:44;102540.31;;;3.87;100.00
58243;BME280;50118;53.232;8.252;2022-09-21T03:56:09;102546.34;;;3.90;100.00
58243;BME280;50118;53.232;8.252;2022-09-21T03:58:35;102543.75;;;3.89;100.00
58243;BME280;50118;53.232;8.252;2022-09-21T04:01:01;102539.28;;;3.91;100.00
58243;BME280;50118;53.232;8.252;2022-09-21T04:03:27;102546.50;;;3.86;100.00
58243;BME280;50118;53.232;8.252;2022-09-21T04:05:54;102547.19;;;3.91;100.00
58243;BME280;50118;53.232;8.252;2022-09-21T04:08:19;102543.63;;;3.92;100.00
58243;BME280;50118;53.232;8.252;2022-09-21T04:10:44;102545.63;;;3.85;100.00
58243;BME280;50118;53.232;8.252;2022-09-21T04:13:10;102545.69;;;3.84;100.00
58243;BME280;50118;53.232;8.252;2022-09-21T04:15:36;102551.19;;;3.78;100.00
58243;BME280;50118;53.232;8.252;2022-09-21T04:18:02;102537.22;;;3.76;100.00
58243;BME280;50118;53.232;8.252;2022-09-21T04:20:27;102546.16;;;3.71;100.00
58243;BME280;50118;53.232;8.252;2022-09-21T04:22:52;102540.94;;;3.70;100.00
58243;BME280;50118;53.232;8.252;2022-09-21T04:25:18;102544.44;;;3.70;100.00
58243;BME280;50118;53.232;8.252;2022-09-21T04:27:43;102547.06;;;3.70;100.00
58243;BME280;50118;53.232;8.252;2022-09-21T04:30:11;102548.09;;;3.66;100.00
58243;BME280;50118;53.232;8.252;2022-09-21T04:32:37;102542.84;;;3.66;100.00
58243;BME280;50118;53.232;8.252;2022-09-21T04:35:03;102538.63;;;3.61;100.00
58243;BME280;50118;53.232;8.252;2022-09-21T04:37:28;102539.50;;;3.61;100.00
58243;BME280;50118;53.232;8.252;2022-09-21T04:39:54;102545.72;;;3.59;100.00
58243;BME280;50118;53.232;8.252;2022-09-21T04:42:20;102548.41;;;3.57;100.00
58243;BME280;50118;53.232;8.252;2022-09-21T04:44:45;102552.84;;;3.57;100.00
58243;BME280;50118;53.232;8.252;2022-09-21T04:47:10;102551.84;;;3.59;100.00
58243;BME280;50118;53.232;8.252;2022-09-21T04:49:36;102545.84;;;3.55;100.00
58243;BME280;50118;53.232;8.252;2022-09-21T04:52:02;102545.63;;;3.62;100.00
58243;BME280;50118;53.232;8.252;2022-09-21T04:54:28;102548.41;;;3.57;100.00
58243;BME280;50118;53.232;8.252;2022-09-21T04:56:53;102553.88;;;3.52;100.00
58243;BME280;50118;53.232;8.252;2022-09-21T04:59:19;102552.94;;;3.53;100.00
58243;BME280;50118;53.232;8.252;2022-09-21T05:01:44;102555.44;;;3.58;100.00
58243;BME280;50118;53.232;8.252;2022-09-21T05:04:09;102553.78;;;3.54;100.00
58243;BME280;50118;53.232;8.252;2022-09-21T05:06:35;102549.41;;;3.54;100.00
58243;BME280;50118;53.232;8.252;2022-09-21T05:09:00;102556.22;;;3.60;100.00
58243;BME280;50118;53.232;8.252;2022-09-21T05:11:44;102555.31;;;3.61;100.00
58243;BME280;50118;53.232;8.252;2022-09-21T05:14:11;102561.50;;;3.60;100.00
58243;BME280;50118;53.232;8.252;2022-09-21T05:16:37;102571.78;;;3.68;100.00
58243;BME280;50118;53.232;8.252;2022-09-21T05:19:03;102565.63;;;3.67;100.00
58243;BME280;50118;53.232;8.252;2022-09-21T05:21:28;102565.63;;;3.67;100.00
58243;BME280;50118;53.232;8.252;2022-09-21T05:23:56;102566.50;;;3.68;100.00
58243;BME280;50118;53.232;8.252;2022-09-21T05:26:22;102569.19;;;3.66;100.00
58243;BME280;50118;53.232;8.252;2022-09-21T05:28:48;102573.47;;;3.69;100.00
58243;BME280;50118;53.232;8.252;2022-09-21T05:33:55;102576.66;;;3.79;100.00
58243;BME280;50118;53.232;8.252;2022-09-21T05:39:13;102575.59;;;3.83;100.00
58243;BME280;50118;53.232;8.252;2022-09-21T05:41:39;102575.28;;;3.92;100.00
58243;BME280;50118;53.232;8.252;2022-09-21T05:44:05;102578.25;;;4.06;100.00
58243;BME280;50118;53.232;8.252;2022-09-21T05:46:45;102581.56;;;4.11;100.00
58243;BME280;50118;53.232;8.252;2022-09-21T05:49:21;102576.19;;;4.15;100.00
58243;BME280;50118;53.232;8.252;2022-09-21T05:52:42;102586.50;;;4.21;100.00
58243;BME280;50118;53.232;8.252;2022-09-21T05:55:13;102584.41;;;4.29;100.00
58243;BME280;50118;53.232;8.252;2022-09-21T06:00:41;102587.28;;;4.46;100.00
58243;BME280;50118;53.232;8.252;2022-09-21T06:05:38;102596.50;;;4.58;100.00
58243;BME280;50118;53.232;8.252;2022-09-21T06:08:04;102595.25;;;4.67;100.00
58243;BME280;50118;53.232;8.252;2022-09-21T06:10:33;102604.53;;;4.77;100.00
58243;BME280;50118;53.232;8.252;2022-09-21T06:12:58;102601.63;;;4.83;100.00
58243;BME280;50118;53.232;8.252;2022-09-21T06:15:24;102607.38;;;4.93;100.00
58243;BME280;50118;53.232;8.252;2022-09-21T06:17:49;102615.81;;;5.03;100.00
58243;BME280;50118;53.232;8.252;2022-09-21T06:20:15;102618.22;;;5.09;100.00
58243;BME280;50118;53.232;8.252;2022-09-21T06:22:40;102609.81;;;5.20;100.00
58243;BME280;50118;53.232;8.252;2022-09-21T06:25:06;102617.41;;;5.28;100.00
58243;BME280;50118;53.232;8.252;2022-09-21T06:27:31;102612.88;;;5.31;100.00
58243;BME280;50118;53.232;8.252;2022-09-21T06:29:57;102613.31;;;5.41;100.00
58243;BME280;50118;53.232;8.252;2022-09-21T06:32:23;102614.53;;;5.54;100.00
58243;BME280;50118;53.232;8.252;2022-09-21T06:34:49;102615.97;;;5.61;100.00
58243;BME280;50118;53.232;8.252;2022-09-21T06:37:14;102610.28;;;5.71;100.00
58243;BME280;50118;53.232;8.252;2022-09-21T06:39:40;102610.81;;;5.79;100.00
58243;BME280;50118;53.232;8.252;2022-09-21T06:42:05;102608.81;;;5.84;100.00
58243;BME280;50118;53.232;8.252;2022-09-21T06:44:30;102615.69;;;5.88;100.00
58243;BME280;50118;53.232;8.252;2022-09-21T06:46:56;102615.28;;;5.97;100.00
58243;BME280;50118;53.232;8.252;2022-09-21T06:49:21;102612.09;;;6.10;100.00
58243;BME280;50118;53.232;8.252;2022-09-21T06:51:47;102611.72;;;6.17;100.00
58243;BME280;50118;53.232;8.252;2022-09-21T06:54:13;102611.25;;;6.28;100.00
58243;BME280;50118;53.232;8.252;2022-09-21T06:56:38;102610.94;;;6.34;100.00
58243;BME280;50118;53.232;8.252;2022-09-21T06:59:03;102611.47;;;6.43;100.00
58243;BME280;50118;53.232;8.252;2022-09-21T07:01:29;102611.97;;;6.51;100.00
58243;BME280;50118;53.232;8.252;2022-09-21T07:03:54;102610.25;;;6.67;100.00
58243;BME280;50118;53.232;8.252;2022-09-21T07:06:20;102613.13;;;6.82;100.00
58243;BME280;50118;53.232;8.252;2022-09-21T07:08:47;102608.31;;;6.90;100.00
58243;BME280;50118;53.232;8.252;2022-09-21T07:11:13;102604.13;;;7.03;100.00
58243;BME280;50118;53.232;8.252;2022-09-21T07:13:39;102610.19;;;7.23;100.00
58243;BME280;50118;53.232;8.252;2022-09-21T07:16:06;102613.00;;;7.55;100.00
58243;BME280;50118;53.232;8.252;2022-09-21T07:18:36;102603.75;;;7.79;100.00
58243;BME280;50118;53.232;8.252;2022-09-21T07:21:04;102604.97;;;7.90;100.00
58243;BME280;50118;53.232;8.252;2022-09-21T07:23:30;102604.34;;;8.02;100.00
58243;BME280;50118;53.232;8.252;2022-09-21T07:26:00;102609.56;;;8.19;100.00
58243;BME280;50118;53.232;8.252;2022-09-21T07:28:26;102607.75;;;8.36;100.00
58243;BME280;50118;53.232;8.252;2022-09-21T07:30:52;102615.69;;;8.69;100.00
58243;BME280;50118;53.232;8.252;2022-09-21T07:33:17;102616.63;;;8.84;100.00
58243;BME280;50118;53.232;8.252;2022-09-21T07:35:50;102614.50;;;9.05;100.00
58243;BME280;50118;53.232;8.252;2022-09-21T07:38:15;102614.88;;;9.29;100.00
58243;BME280;50118;53.232;8.252;2022-09-21T07:40:40;102618.56;;;9.57;100.00
58243;BME280;50118;53.232;8.252;2022-09-21T07:43:06;102622.84;;;9.88;100.00
58243;BME280;50118;53.232;8.252;2022-09-21T07:45:31;102614.94;;;10.16;100.00
58243;BME280;50118;53.232;8.252;2022-09-21T07:48:03;102616.84;;;10.42;100.00
58243;BME280;50118;53.232;8.252;2022-09-21T07:50:30;102619.66;;;10.54;100.00
58243;BME280;50118;53.232;8.252;2022-09-21T07:52:58;102616.41;;;10.63;100.00
58243;BME280;50118;53.232;8.252;2022-09-21T07:55:24;102624.00;;;10.69;100.00
58243;BME280;50118;53.232;8.252;2022-09-21T07:57:50;102625.78;;;10.83;100.00
58243;BME280;50118;53.232;8.252;2022-09-21T08:00:34;102622.09;;;10.98;100.00
58243;BME280;50118;53.232;8.252;2022-09-21T08:03:00;102612.19;;;11.00;100.00
58243;BME280;50118;53.232;8.252;2022-09-21T08:05:26;102619.91;;;11.18;100.00
58243;BME280;50118;53.232;8.252;2022-09-21T08:07:55;102616.28;;;11.32;100.00
58243;BME280;50118;53.232;8.252;2022-09-21T08:10:22;102621.44;;;11.35;100.00
58243;BME280;50118;53.232;8.252;2022-09-21T08:12:48;102623.38;;;11.58;100.00
58243;BME280;50118;53.232;8.252;2022-09-21T08:15:20;102616.78;;;11.77;100.00
58243;BME280;50118;53.232;8.252;2022-09-21T08:17:45;102616.31;;;11.83;100.00
58243;BME280;50118;53.232;8.252;2022-09-21T08:20:11;102615.06;;;12.02;100.00
58243;BME280;50118;53.232;8.252;2022-09-21T08:25:36;102619.19;;;12.31;100.00
58243;BME280;50118;53.232;8.252;2022-09-21T08:28:25;102612.81;;;12.58;100.00
58243;BME280;50118;53.232;8.252;2022-09-21T08:30:51;102621.66;;;12.83;100.00
58243;BME280;50118;53.232;8.252;2022-09-21T08:33:16;102626.41;;;12.79;100.00
58243;BME280;50118;53.232;8.252;2022-09-21T08:35:52;102619.72;;;12.85;100.00
58243;BME280;50118;53.232;8.252;2022-09-21T08:38:18;102624.75;;;13.25;100.00
58243;BME280;50118;53.232;8.252;2022-09-21T08:40:43;102617.34;;;13.64;99.79
58243;BME280;50118;53.232;8.252;2022-09-21T08:43:12;102625.63;;;13.83;96.86
58243;BME280;50118;53.232;8.252;2022-09-21T08:45:43;102622.09;;;14.06;96.12
58243;BME280;50118;53.232;8.252;2022-09-21T08:48:18;102620.63;;;14.35;91.67
58243;BME280;50118;53.232;8.252;2022-09-21T08:50:48;102616.09;;;14.47;89.30
58243;BME280;50118;53.232;8.252;2022-09-21T08:53:21;102628.25;;;14.74;90.10
58243;BME280;50118;53.232;8.252;2022-09-21T08:55:50;102630.34;;;14.48;88.67
58243;BME280;50118;53.232;8.252;2022-09-21T08:58:27;102621.69;;;14.99;84.88
58243;BME280;50118;53.232;8.252;2022-09-21T09:15:29;102627.84;;;16.26;74.80
58243;BME280;50118;53.232;8.252;2022-09-21T09:18:16;102627.28;;;17.22;77.21
58243;BME280;50118;53.232;8.252;2022-09-21T09:20:46;102626.25;;;17.42;75.66
58243;BME280;50118;53.232;8.252;2022-09-21T09:23:21;102627.06;;;17.52;71.58
58243;BME280;50118;53.232;8.252;2022-09-21T09:29:17;102625.91;;;17.65;67.65
58243;BME280;50118;53.232;8.252;2022-09-21T09:31:54;102631.63;;;17.32;69.23
58243;BME280;50118;53.232;8.252;2022-09-21T09:34:34;102626.84;;;17.16;70.95
58243;BME280;50118;53.232;8.252;2022-09-21T09:37:10;102630.75;;;17.42;64.19
58243;BME280;50118;53.232;8.252;2022-09-21T09:39:36;102630.81;;;17.22;68.39
58243;BME280;50118;53.232;8.252;2022-09-21T09:47:49;102630.78;;;18.26;62.64
58243;BME280;50118;53.232;8.252;2022-09-21T09:50:29;102625.59;;;18.61;60.98
58243;BME280;50118;53.232;8.252;2022-09-21T09:53:19;102631.16;;;18.87;59.29
58243;BME280;50118;53.232;8.252;2022-09-21T09:55:49;102631.91;;;18.97;57.97
58243;BME280;50118;53.232;8.252;2022-09-21T09:58:20;102632.75;;;18.98;60.36
58243;BME280;50118;53.232;8.252;2022-09-21T10:00:50;102635.56;;;18.60;59.83
58243;BME280;50118;53.232;8.252;2022-09-21T10:03:18;102633.28;;;18.38;56.35
58243;BME280;50118;53.232;8.252;2022-09-21T10:05:44;102629.00;;;18.17;56.39
58243;BME280;50118;53.232;8.252;2022-09-21T10:11:00;102628.34;;;18.33;56.99
58243;BME280;50118;53.232;8.252;2022-09-21T10:16:10;102626.28;;;18.45;55.62
58243;BME280;50118;53.232;8.252;2022-09-21T10:21:06;102627.91;;;18.56;52.08
58243;BME280;50118;53.232;8.252;2022-09-21T10:23:32;102622.06;;;19.32;51.36
58243;BME280;50118;53.232;8.252;2022-09-21T10:26:07;102624.03;;;18.68;53.42
58243;BME280;50118;53.232;8.252;2022-09-21T10:28:34;102626.47;;;18.34;55.46
58243;BME280;50118;53.232;8.252;2022-09-21T10:33:51;102622.59;;;18.18;55.59
58243;BME280;50118;53.232;8.252;2022-09-21T10:36:29;102625.56;;;17.87;58.48
58243;BME280;50118;53.232;8.252;2022-09-21T10:38:55;102628.41;;;16.99;60.46
58243;BME280;50118;53.232;8.252;2022-09-21T10:41:21;102619.19;;;17.02;59.65
58243;BME280;50118;53.232;8.252;2022-09-21T10:43:47;102624.31;;;16.35;60.63
58243;BME280;50118;53.232;8.252;2022-09-21T10:46:15;102613.22;;;16.09;61.68
58243;BME280;50118;53.232;8.252;2022-09-21T10:48:44;102618.38;;;16.32;60.15
58243;BME280;50118;53.232;8.252;2022-09-21T10:51:28;102623.63;;;16.43;58.28
58243;BME280;50118;53.232;8.252;2022-09-21T10:53:55;102614.72;;;16.52;57.28
58243;BME280;50118;53.232;8.252;2022-09-21T10:56:21;102617.19;;;17.14;58.85
58243;BME280;50118;53.232;8.252;2022-09-21T11:01:34;102614.94;;;18.87;54.51
58243;BME280;50118;53.232;8.252;2022-09-21T11:04:15;102607.34;;;19.27;53.23
58243;BME280;50118;53.232;8.252;2022-09-21T11:06:46;102607.16;;;18.84;52.59
58243;BME280;50118;53.232;8.252;2022-09-21T11:12:20;102603.91;;;19.42;51.07
58243;BME280;50118;53.232;8.252;2022-09-21T11:25:42;102606.91;;;19.92;50.89
58243;BME280;50118;53.232;8.252;2022-09-21T11:28:23;102608.34;;;20.04;49.80
58243;BME280;50118;53.232;8.252;2022-09-21T11:33:31;102602.50;;;19.83;48.72
58243;BME280;50118;53.232;8.252;2022-09-21T11:44:25;102590.16;;;18.74;50.08
58243;BME280;50118;53.232;8.252;2022-09-21T11:47:13;102595.47;;;18.20;52.16
58243;BME280;50118;53.232;8.252;2022-09-21T11:55:31;102584.75;;;19.10;50.90
58243;BME280;50118;53.232;8.252;2022-09-21T11:58:08;102578.94;;;19.49;49.57
58243;BME280;50118;53.232;8.252;2022-09-21T12:00:50;102590.66;;;18.87;50.15
58243;BME280;50118;53.232;8.252;2022-09-21T12:03:48;102586.44;;;17.73;54.73
58243;BME280;50118;53.232;8.252;2022-09-21T12:06:37;102588.50;;;17.52;54.85
58243;BME280;50118;53.232;8.252;2022-09-21T12:11:51;102576.69;;;16.96;58.99
58243;BME280;50118;53.232;8.252;2022-09-21T12:17:05;102566.78;;;17.06;56.90
58243;BME280;50118;53.232;8.252;2022-09-21T12:19:45;102576.69;;;17.63;54.33
58243;BME280;50118;53.232;8.252;2022-09-21T12:22:25;102578.19;;;17.85;55.78
58243;BME280;50118;53.232;8.252;2022-09-21T12:25:11;102569.69;;;18.35;53.16
58243;BME280;50118;53.232;8.252;2022-09-21T12:27:49;102561.50;;;17.71;55.47
58243;BME280;50118;53.232;8.252;2022-09-21T12:30:19;102567.19;;;18.70;51.86
58243;BME280;50118;53.232;8.252;2022-09-21T12:32:49;102568.09;;;19.14;51.72
58243;BME280;50118;53.232;8.252;2022-09-21T12:46:06;102558.41;;;19.30;48.32
58243;BME280;50118;53.232;8.252;2022-09-21T12:48:35;102563.00;;;19.11;47.42
58243;BME280;50118;53.232;8.252;2022-09-21T12:53:32;102551.59;;;18.99;46.90
58243;BME280;50118;53.232;8.252;2022-09-21T13:01:44;102552.38;;;18.38;47.25
58243;BME280;50118;53.232;8.252;2022-09-21T13:09:41;102541.47;;;17.74;52.14
58243;BME280;50118;53.232;8.252;2022-09-21T13:14:46;102537.19;;;17.81;51.03
58243;BME280;50118;53.232;8.252;2022-09-21T13:17:26;102542.22;;;17.29;55.53
58243;BME280;50118;53.232;8.252;2022-09-21T13:20:06;102538.53;;;17.20;54.32
58243;BME280;50118;53.232;8.252;2022-09-21T13:22:40;102530.81;;;16.88;55.22
58243;BME280;50118;53.232;8.252;2022-09-21T13:25:18;102531.03;;;16.65;56.34
58243;BME280;50118;53.232;8.252;2022-09-21T13:34:47;102530.06;;;15.77;63.49
58243;BME280;50118;53.232;8.252;2022-09-21T13:37:32;102530.06;;;15.56;66.20
58243;BME280;50118;53.232;8.252;2022-09-21T13:43:21;102516.25;;;15.29;71.76
58243;BME280;50118;53.232;8.252;2022-09-21T13:45:50;102526.41;;;15.26;69.68
58243;BME280;50118;53.232;8.252;2022-09-21T13:48:22;102529.47;;;15.21;66.60
58243;BME280;50118;53.232;8.252;2022-09-21T13:50:49;102521.75;;;15.28;62.23
58243;BME280;50118;53.232;8.252;2022-09-21T13:53:25;102516.44;;;15.38;60.20
58243;BME280;50118;53.232;8.252;2022-09-21T13:55:58;102516.88;;;15.43;59.84
58243;BME280;50118;53.232;8.252;2022-09-21T13:58:35;102524.16;;;15.31;62.78
58243;BME280;50118;53.232;8.252;2022-09-21T14:01:20;102523.53;;;15.18;66.39
58243;BME280;50118;53.232;8.252;2022-09-21T14:03:57;102519.59;;;15.01;70.32
58243;BME280;50118;53.232;8.252;2022-09-21T14:06:46;102518.72;;;14.79;72.33
58243;BME280;50118;53.232;8.252;2022-09-21T14:09:26;102514.91;;;14.61;71.90
58243;BME280;50118;53.232;8.252;2022-09-21T14:11:59;102513.81;;;14.52;73.62
58243;BME280;50118;53.232;8.252;2022-09-21T14:14:34;102511.31;;;14.39;74.63
58243;BME280;50118;53.232;8.252;2022-09-21T14:17:40;102510.88;;;14.23;76.42
58243;BME280;50118;53.232;8.252;2022-09-21T14:28:26;102508.00;;;13.92;82.77
58243;BME280;50118;53.232;8.252;2022-09-21T14:31:32;102499.97;;;14.03;79.10
58243;BME280;50118;53.232;8.252;2022-09-21T14:34:00;102499.91;;;14.26;77.72
58243;BME280;50118;53.232;8.252;2022-09-21T14:36:35;102496.63;;;14.54;72.83
58243;BME280;50118;53.232;8.252;2022-09-21T14:39:19;102502.88;;;14.76;67.14
58243;BME280;50118;53.232;8.252;2022-09-21T14:41:48;102492.56;;;14.92;65.41
58243;BME280;50118;53.232;8.252;2022-09-21T14:44:20;102494.06;;;15.06;63.01
58243;BME280;50118;53.232;8.252;2022-09-21T15:00:22;102471.13;;;15.54;55.77
58243;BME280;50118;53.232;8.252;2022-09-21T15:05:39;102466.88;;;15.52;55.95
58243;BME280;50118;53.232;8.252;2022-09-21T15:11:43;102467.81;;;15.72;58.22
58243;BME280;50118;53.232;8.252;2022-09-21T15:14:39;102468.78;;;15.71;58.28
58243;BME280;50118;53.232;8.252;2022-09-21T15:17:28;102466.34;;;15.67;61.27
58243;BME280;50118;53.232;8.252;2022-09-21T15:19:57;102465.25;;;15.70;60.69
58243;BME280;50118;53.232;8.252;2022-09-21T15:29:35;102456.19;;;15.61;66.30
58243;BME280;50118;53.232;8.252;2022-09-21T15:35:24;102457.81;;;15.53;64.01
58243;BME280;50118;53.232;8.252;2022-09-21T15:37:55;102453.59;;;15.50;59.58
58243;BME280;50118;53.232;8.252;2022-09-21T15:42:59;102458.22;;;15.79;60.20
58243;BME280;50118;53.232;8.252;2022-09-21T15:45:32;102449.16;;;15.80;60.28
58243;BME280;50118;53.232;8.252;2022-09-21T15:48:05;102455.81;;;15.76;58.60
58243;BME280;50118;53.232;8.252;2022-09-21T15:53:43;102447.13;;;15.62;57.21
58243;BME280;50118;53.232;8.252;2022-09-21T15:56:25;102445.78;;;15.78;58.11
58243;BME280;50118;53.232;8.252;2022-09-21T15:59:01;102455.97;;;15.84;56.33
58243;BME280;50118;53.232;8.252;2022-09-21T16:01:38;102454.13;;;15.84;54.88
58243;BME280;50118;53.232;8.252;2022-09-21T16:04:07;102451.69;;;15.72;55.28
58243;BME280;50118;53.232;8.252;2022-09-21T16:06:39;102447.56;;;15.67;58.33
58243;BME280;50118;53.232;8.252;2022-09-21T16:12:44;102449.59;;;15.85;56.66
58243;BME280;50118;53.232;8.252;2022-09-21T16:15:16;102442.38;;;15.76;60.09
58243;BME280;50118;53.232;8.252;2022-09-21T16:20:43;102445.91;;;15.76;56.30
58243;BME280;50118;53.232;8.252;2022-09-21T16:23:18;102448.38;;;15.58;55.68
58243;BME280;50118;53.232;8.252;2022-09-21T16:25:57;102443.06;;;15.37;58.46
58243;BME280;50118;53.232;8.252;2022-09-21T16:30:52;102449.00;;;15.10;64.21
58243;BME280;50118;53.232;8.252;2022-09-21T16:38:42;102450.06;;;14.55;69.70